sensor_id;sensor_type;location;lat;lon;timestamp;P1;P2;P0
72908;PMS5003;61051;62.624;17.950;2023-06-22T00:00:05;36;29;
72908;PMS5003;61051;62.624;17.950;2023-06-22T00:02:34;33;32;
72908;PMS5003;61051;62.624;17.950;2023-06-22T00:05:03;35;30;
72908;PMS5003;61051;62.624;17.950;2023-06-22T00:07:32;34;30;
72908;PMS5003;61051;62.624;17.950;2023-06-22T00:10:00;34;32;
72908;PMS5003;61051;62.624;17.950;2023-06-22T00:12:29;31;29;
72908;PMS5003;61051;62.624;17.950;2023-06-22T00:14:57;40;33;
72908;PMS5003;61051;62.624;17.950;2023-06-22T00:17:26;37;32;
72908;PMS5003;61051;62.624;17.950;2023-06-22T00:19:55;28;28;
72908;PMS5003;61051;62.624;17.950;2023-06-22T00:22:23;35;31;
72908;PMS5003;61051;62.624;17.950;2023-06-22T00:24:51;31;30;
72908;PMS5003;61051;62.624;17.950;2023-06-22T00:27:20;31;29;
72908;PMS5003;61051;62.624;17.950;2023-06-22T00:29:47;37;35;
72908;PMS5003;61051;62.624;17.950;2023-06-22T00:32:16;33;29;
72908;PMS5003;61051;62.624;17.950;2023-06-22T00:34:45;31;30;
72908;PMS5003;61051;62.624;17.950;2023-06-22T00:37:15;34;29;
72908;PMS5003;61051;62.624;17.950;2023-06-22T00:39:44;40;31;
72908;PMS5003;61051;62.624;17.950;2023-06-22T00:42:13;34;29;
72908;PMS5003;61051;62.624;17.950;2023-06-22T00:44:42;38;29;
72908;PMS5003;61051;62.624;17.950;2023-06-22T00:47:11;35;33;
72908;PMS5003;61051;62.624;17.950;2023-06-22T00:49:40;40;36;
72908;PMS5003;61051;62.624;17.950;2023-06-22T00:52:09;34;31;
72908;PMS5003;61051;62.624;17.950;2023-06-22T00:54:39;39;34;
72908;PMS5003;61051;62.624;17.950;2023-06-22T00:57:07;33;31;
72908;PMS5003;61051;62.624;17.950;2023-06-22T00:59:36;39;34;
72908;PMS5003;61051;62.624;17.950;2023-06-22T01:02:05;34;29;
72908;PMS5003;61051;62.624;17.950;2023-06-22T01:04:34;38;29;
72908;PMS5003;61051;62.624;17.950;2023-06-22T01:07:06;37;31;
72908;PMS5003;61051;62.624;17.950;2023-06-22T01:09:44;34;30;
72908;PMS5003;61051;62.624;17.950;2023-06-22T01:12:17;32;29;
72908;PMS5003;61051;62.624;17.950;2023-06-22T01:14:47;42;39;
72908;PMS5003;61051;62.624;17.950;2023-06-22T01:17:23;40;34;
72908;PMS5003;61051;62.624;17.950;2023-06-22T01:19:55;37;37;
72908;PMS5003;61051;62.624;17.950;2023-06-22T01:22:26;44;36;
72908;PMS5003;61051;62.624;17.950;2023-06-22T01:25:02;41;33;
72908;PMS5003;61051;62.624;17.950;2023-06-22T01:27:39;35;34;
72908;PMS5003;61051;62.624;17.950;2023-06-22T01:30:16;37;36;
72908;PMS5003;61051;62.624;17.950;2023-06-22T01:32:46;44;35;
72908;PMS5003;61051;62.624;17.950;2023-06-22T01:35:16;41;34;
72908;PMS5003;61051;62.624;17.950;2023-06-22T01:37:46;37;35;
72908;PMS5003;61051;62.624;17.950;2023-06-22T01:40:21;45;39;
72908;PMS5003;61051;62.624;17.950;2023-06-22T01:42:50;38;37;
72908;PMS5003;61051;62.624;17.950;2023-06-22T01:45:19;56;46;
72908;PMS5003;61051;62.624;17.950;2023-06-22T01:47:48;60;52;
72908;PMS5003;61051;62.624;17.950;2023-06-22T01:50:17;56;50;
72908;PMS5003;61051;62.624;17.950;2023-06-22T01:52:45;48;46;
72908;PMS5003;61051;62.624;17.950;2023-06-22T01:55:14;54;46;
72908;PMS5003;61051;62.624;17.950;2023-06-22T01:57:43;52;44;
72908;PMS5003;61051;62.624;17.950;2023-06-22T02:00:13;58;48;
72908;PMS5003;61051;62.624;17.950;2023-06-22T02:02:49;55;50;
72908;PMS5003;61051;62.624;17.950;2023-06-22T02:05:28;51;44;
72908;PMS5003;61051;62.624;17.950;2023-06-22T02:08:00;57;48;
72908;PMS5003;61051;62.624;17.950;2023-06-22T02:10:37;56;47;
72908;PMS5003;61051;62.624;17.950;2023-06-22T02:13:07;59;50;
72908;PMS5003;61051;62.624;17.950;2023-06-22T02:15:38;45;41;
72908;PMS5003;61051;62.624;17.950;2023-06-22T02:18:07;56;47;
72908;PMS5003;61051;62.624;17.950;2023-06-22T02:20:36;46;42;
72908;PMS5003;61051;62.624;17.950;2023-06-22T02:23:05;42;41;
72908;PMS5003;61051;62.624;17.950;2023-06-22T02:25:34;42;36;
72908;PMS5003;61051;62.624;17.950;2023-06-22T02:28:03;53;42;
72908;PMS5003;61051;62.624;17.950;2023-06-22T02:30:31;47;44;
72908;PMS5003;61051;62.624;17.950;2023-06-22T02:33:01;47;44;
72908;PMS5003;61051;62.624;17.950;2023-06-22T02:35:30;54;45;
72908;PMS5003;61051;62.624;17.950;2023-06-22T02:37:59;45;41;
72908;PMS5003;61051;62.624;17.950;2023-06-22T02:40:28;41;40;
72908;PMS5003;61051;62.624;17.950;2023-06-22T02:42:57;36;36;
72908;PMS5003;61051;62.624;17.950;2023-06-22T02:45:26;46;39;
72908;PMS5003;61051;62.624;17.950;2023-06-22T02:47:56;48;39;
72908;PMS5003;61051;62.624;17.950;2023-06-22T02:50:25;51;41;
72908;PMS5003;61051;62.624;17.950;2023-06-22T02:52:54;49;41;
72908;PMS5003;61051;62.624;17.950;2023-06-22T02:55:24;52;41;
72908;PMS5003;61051;62.624;17.950;2023-06-22T02:57:53;45;39;
72908;PMS5003;61051;62.624;17.950;2023-06-22T03:00:24;44;38;
72908;PMS5003;61051;62.624;17.950;2023-06-22T03:02:53;46;37;
72908;PMS5003;61051;62.624;17.950;2023-06-22T03:05:22;51;41;
72908;PMS5003;61051;62.624;17.950;2023-06-22T03:07:52;41;36;
72908;PMS5003;61051;62.624;17.950;2023-06-22T03:10:22;47;41;
72908;PMS5003;61051;62.624;17.950;2023-06-22T03:12:50;44;36;
72908;PMS5003;61051;62.624;17.950;2023-06-22T03:15:19;43;38;
72908;PMS5003;61051;62.624;17.950;2023-06-22T03:17:48;45;39;
72908;PMS5003;61051;62.624;17.950;2023-06-22T03:20:17;39;37;
72908;PMS5003;61051;62.624;17.950;2023-06-22T03:22:45;43;39;
72908;PMS5003;61051;62.624;17.950;2023-06-22T03:25:13;44;40;
72908;PMS5003;61051;62.624;17.950;2023-06-22T03:27:41;54;46;
72908;PMS5003;61051;62.624;17.950;2023-06-22T03:30:11;55;46;
72908;PMS5003;61051;62.624;17.950;2023-06-22T03:32:39;46;40;
72908;PMS5003;61051;62.624;17.950;2023-06-22T03:35:09;46;42;
72908;PMS5003;61051;62.624;17.950;2023-06-22T03:37:37;45;39;
72908;PMS5003;61051;62.624;17.950;2023-06-22T03:40:07;41;39;
72908;PMS5003;61051;62.624;17.950;2023-06-22T03:42:36;39;38;
72908;PMS5003;61051;62.624;17.950;2023-06-22T03:45:05;46;41;
72908;PMS5003;61051;62.624;17.950;2023-06-22T03:47:35;46;45;
72908;PMS5003;61051;62.624;17.950;2023-06-22T03:50:04;43;37;
72908;PMS5003;61051;62.624;17.950;2023-06-22T03:52:34;52;41;
72908;PMS5003;61051;62.624;17.950;2023-06-22T03:55:02;41;40;
72908;PMS5003;61051;62.624;17.950;2023-06-22T03:57:32;42;38;
72908;PMS5003;61051;62.624;17.950;2023-06-22T04:00:01;38;33;
72908;PMS5003;61051;62.624;17.950;2023-06-22T04:03:20;39;37;
72908;PMS5003;61051;62.624;17.950;2023-06-22T04:05:49;37;33;
72908;PMS5003;61051;62.624;17.950;2023-06-22T04:08:17;43;39;
72908;PMS5003;61051;62.624;17.950;2023-06-22T04:10:47;46;37;
72908;PMS5003;61051;62.624;17.950;2023-06-22T04:13:15;38;37;
72908;PMS5003;61051;62.624;17.950;2023-06-22T04:15:44;47;39;
72908;PMS5003;61051;62.624;17.950;2023-06-22T04:18:14;45;36;
72908;PMS5003;61051;62.624;17.950;2023-06-22T04:20:43;46;39;
72908;PMS5003;61051;62.624;17.950;2023-06-22T04:23:10;45;38;
72908;PMS5003;61051;62.624;17.950;2023-06-22T04:25:39;46;42;
72908;PMS5003;61051;62.624;17.950;2023-06-22T04:28:08;47;42;
72908;PMS5003;61051;62.624;17.950;2023-06-22T04:30:36;40;39;
72908;PMS5003;61051;62.624;17.950;2023-06-22T04:33:04;48;41;
72908;PMS5003;61051;62.624;17.950;2023-06-22T04:35:32;49;44;
72908;PMS5003;61051;62.624;17.950;2023-06-22T04:38:01;50;42;
72908;PMS5003;61051;62.624;17.950;2023-06-22T04:40:30;45;43;
72908;PMS5003;61051;62.624;17.950;2023-06-22T04:42:59;52;45;
72908;PMS5003;61051;62.624;17.950;2023-06-22T04:45:29;47;41;
72908;PMS5003;61051;62.624;17.950;2023-06-22T04:47:57;53;46;
72908;PMS5003;61051;62.624;17.950;2023-06-22T04:50:26;44;40;
72908;PMS5003;61051;62.624;17.950;2023-06-22T04:52:56;44;44;
72908;PMS5003;61051;62.624;17.950;2023-06-22T04:55:26;41;35;
72908;PMS5003;61051;62.624;17.950;2023-06-22T04:57:56;43;35;
72908;PMS5003;61051;62.624;17.950;2023-06-22T05:00:26;42;35;
72908;PMS5003;61051;62.624;17.950;2023-06-22T05:02:55;45;34;
72908;PMS5003;61051;62.624;17.950;2023-06-22T05:05:26;33;30;
72908;PMS5003;61051;62.624;17.950;2023-06-22T05:07:56;33;32;
72908;PMS5003;61051;62.624;17.950;2023-06-22T05:10:25;44;34;
72908;PMS5003;61051;62.624;17.950;2023-06-22T05:12:54;43;36;
72908;PMS5003;61051;62.624;17.950;2023-06-22T05:15:24;35;30;
72908;PMS5003;61051;62.624;17.950;2023-06-22T05:17:52;34;34;
72908;PMS5003;61051;62.624;17.950;2023-06-22T05:20:20;38;34;
72908;PMS5003;61051;62.624;17.950;2023-06-22T05:22:49;41;33;
72908;PMS5003;61051;62.624;17.950;2023-06-22T05:25:18;36;29;
72908;PMS5003;61051;62.624;17.950;2023-06-22T05:27:47;37;30;
72908;PMS5003;61051;62.624;17.950;2023-06-22T05:30:15;27;27;
72908;PMS5003;61051;62.624;17.950;2023-06-22T05:32:43;27;27;
72908;PMS5003;61051;62.624;17.950;2023-06-22T05:35:12;26;26;
72908;PMS5003;61051;62.624;17.950;2023-06-22T05:37:41;29;26;
72908;PMS5003;61051;62.624;17.950;2023-06-22T05:40:10;27;26;
72908;PMS5003;61051;62.624;17.950;2023-06-22T05:42:40;33;28;
72908;PMS5003;61051;62.624;17.950;2023-06-22T05:45:09;26;24;
72908;PMS5003;61051;62.624;17.950;2023-06-22T05:47:38;27;25;
72908;PMS5003;61051;62.624;17.950;2023-06-22T05:50:07;25;25;
72908;PMS5003;61051;62.624;17.950;2023-06-22T05:52:36;27;27;
72908;PMS5003;61051;62.624;17.950;2023-06-22T05:55:05;29;27;
72908;PMS5003;61051;62.624;17.950;2023-06-22T05:57:33;28;28;
72908;PMS5003;61051;62.624;17.950;2023-06-22T06:00:01;28;26;
72908;PMS5003;61051;62.624;17.950;2023-06-22T06:02:31;33;33;
72908;PMS5003;61051;62.624;17.950;2023-06-22T06:05:00;34;32;
72908;PMS5003;61051;62.624;17.950;2023-06-22T06:07:28;30;30;
72908;PMS5003;61051;62.624;17.950;2023-06-22T06:09:57;36;31;
72908;PMS5003;61051;62.624;17.950;2023-06-22T06:12:25;38;31;
72908;PMS5003;61051;62.624;17.950;2023-06-22T06:14:54;41;33;
72908;PMS5003;61051;62.624;17.950;2023-06-22T06:17:23;34;30;
72908;PMS5003;61051;62.624;17.950;2023-06-22T06:19:52;29;27;
72908;PMS5003;61051;62.624;17.950;2023-06-22T06:22:21;29;28;
72908;PMS5003;61051;62.624;17.950;2023-06-22T06:24:50;29;26;
72908;PMS5003;61051;62.624;17.950;2023-06-22T06:27:19;31;30;
72908;PMS5003;61051;62.624;17.950;2023-06-22T06:29:47;34;31;
72908;PMS5003;61051;62.624;17.950;2023-06-22T06:32:16;35;29;
72908;PMS5003;61051;62.624;17.950;2023-06-22T06:34:44;32;27;
72908;PMS5003;61051;62.624;17.950;2023-06-22T06:37:12;32;30;
72908;PMS5003;61051;62.624;17.950;2023-06-22T06:39:41;32;28;
72908;PMS5003;61051;62.624;17.950;2023-06-22T06:42:09;25;24;
72908;PMS5003;61051;62.624;17.950;2023-06-22T06:44:37;32;27;
72908;PMS5003;61051;62.624;17.950;2023-06-22T06:47:06;29;29;
72908;PMS5003;61051;62.624;17.950;2023-06-22T06:49:35;33;28;
72908;PMS5003;61051;62.624;17.950;2023-06-22T06:52:04;33;27;
72908;PMS5003;61051;62.624;17.950;2023-06-22T06:54:33;31;30;
72908;PMS5003;61051;62.624;17.950;2023-06-22T06:57:01;35;32;
72908;PMS5003;61051;62.624;17.950;2023-06-22T06:59:30;42;35;
72908;PMS5003;61051;62.624;17.950;2023-06-22T07:01:58;39;33;
72908;PMS5003;61051;62.624;17.950;2023-06-22T07:04:27;36;35;
72908;PMS5003;61051;62.624;17.950;2023-06-22T07:06:58;47;37;
72908;PMS5003;61051;62.624;17.950;2023-06-22T07:09:30;30;30;
72908;PMS5003;61051;62.624;17.950;2023-06-22T07:11:59;34;29;
72908;PMS5003;61051;62.624;17.950;2023-06-22T07:14:27;35;32;
72908;PMS5003;61051;62.624;17.950;2023-06-22T07:16:56;36;30;
72908;PMS5003;61051;62.624;17.950;2023-06-22T07:19:25;38;32;
72908;PMS5003;61051;62.624;17.950;2023-06-22T07:21:55;35;32;
72908;PMS5003;61051;62.624;17.950;2023-06-22T07:24:24;32;32;
72908;PMS5003;61051;62.624;17.950;2023-06-22T07:26:53;37;28;
72908;PMS5003;61051;62.624;17.950;2023-06-22T07:29:22;42;33;
72908;PMS5003;61051;62.624;17.950;2023-06-22T07:31:50;37;30;
72908;PMS5003;61051;62.624;17.950;2023-06-22T07:34:19;41;32;
72908;PMS5003;61051;62.624;17.950;2023-06-22T07:36:47;41;36;
72908;PMS5003;61051;62.624;17.950;2023-06-22T07:39:16;43;38;
72908;PMS5003;61051;62.624;17.950;2023-06-22T07:41:44;45;41;
72908;PMS5003;61051;62.624;17.950;2023-06-22T07:44:14;46;38;
72908;PMS5003;61051;62.624;17.950;2023-06-22T07:46:43;46;38;
72908;PMS5003;61051;62.624;17.950;2023-06-22T07:49:11;44;39;
72908;PMS5003;61051;62.624;17.950;2023-06-22T07:51:39;39;37;
72908;PMS5003;61051;62.624;17.950;2023-06-22T07:54:08;44;36;
72908;PMS5003;61051;62.624;17.950;2023-06-22T07:56:38;44;41;
72908;PMS5003;61051;62.624;17.950;2023-06-22T07:59:07;44;41;
72908;PMS5003;61051;62.624;17.950;2023-06-22T08:01:36;51;43;
72908;PMS5003;61051;62.624;17.950;2023-06-22T08:04:04;50;42;
72908;PMS5003;61051;62.624;17.950;2023-06-22T08:06:32;45;37;
72908;PMS5003;61051;62.624;17.950;2023-06-22T08:09:01;37;36;
72908;PMS5003;61051;62.624;17.950;2023-06-22T08:11:30;51;42;
72908;PMS5003;61051;62.624;17.950;2023-06-22T08:13:59;47;46;
72908;PMS5003;61051;62.624;17.950;2023-06-22T08:16:27;50;42;
72908;PMS5003;61051;62.624;17.950;2023-06-22T08:18:56;46;42;
72908;PMS5003;61051;62.624;17.950;2023-06-22T08:21:25;50;42;
72908;PMS5003;61051;62.624;17.950;2023-06-22T08:23:55;44;43;
72908;PMS5003;61051;62.624;17.950;2023-06-22T08:26:25;48;41;
72908;PMS5003;61051;62.624;17.950;2023-06-22T08:28:55;39;38;
72908;PMS5003;61051;62.624;17.950;2023-06-22T08:31:25;44;40;
72908;PMS5003;61051;62.624;17.950;2023-06-22T08:33:53;51;42;
72908;PMS5003;61051;62.624;17.950;2023-06-22T08:36:21;41;37;
72908;PMS5003;61051;62.624;17.950;2023-06-22T08:38:50;41;37;
72908;PMS5003;61051;62.624;17.950;2023-06-22T08:41:19;43;36;
72908;PMS5003;61051;62.624;17.950;2023-06-22T08:43:49;46;39;
72908;PMS5003;61051;62.624;17.950;2023-06-22T08:46:18;45;39;
72908;PMS5003;61051;62.624;17.950;2023-06-22T08:48:47;41;37;
72908;PMS5003;61051;62.624;17.950;2023-06-22T08:51:16;42;39;
72908;PMS5003;61051;62.624;17.950;2023-06-22T08:53:44;40;39;
72908;PMS5003;61051;62.624;17.950;2023-06-22T08:56:13;53;42;
72908;PMS5003;61051;62.624;17.950;2023-06-22T08:58:43;51;43;
72908;PMS5003;61051;62.624;17.950;2023-06-22T09:01:12;56;46;
72908;PMS5003;61051;62.624;17.950;2023-06-22T09:03:40;53;43;
72908;PMS5003;61051;62.624;17.950;2023-06-22T09:06:08;50;42;
72908;PMS5003;61051;62.624;17.950;2023-06-22T09:08:37;50;43;
72908;PMS5003;61051;62.624;17.950;2023-06-22T09:11:05;48;46;
72908;PMS5003;61051;62.624;17.950;2023-06-22T09:13:33;54;43;
72908;PMS5003;61051;62.624;17.950;2023-06-22T09:16:01;57;49;
72908;PMS5003;61051;62.624;17.950;2023-06-22T09:18:30;57;50;
72908;PMS5003;61051;62.624;17.950;2023-06-22T09:20:59;48;43;
72908;PMS5003;61051;62.624;17.950;2023-06-22T09:23:28;35;33;
72908;PMS5003;61051;62.624;17.950;2023-06-22T09:25:57;32;31;
72908;PMS5003;61051;62.624;17.950;2023-06-22T09:28:26;32;30;
72908;PMS5003;61051;62.624;17.950;2023-06-22T09:30:55;37;33;
72908;PMS5003;61051;62.624;17.950;2023-06-22T09:33:24;41;37;
72908;PMS5003;61051;62.624;17.950;2023-06-22T09:35:53;35;34;
72908;PMS5003;61051;62.624;17.950;2023-06-22T09:38:23;44;36;
72908;PMS5003;61051;62.624;17.950;2023-06-22T09:40:52;35;33;
72908;PMS5003;61051;62.624;17.950;2023-06-22T09:43:21;40;33;
72908;PMS5003;61051;62.624;17.950;2023-06-22T09:45:49;37;35;
72908;PMS5003;61051;62.624;17.950;2023-06-22T09:48:18;36;34;
72908;PMS5003;61051;62.624;17.950;2023-06-22T09:50:46;36;34;
72908;PMS5003;61051;62.624;17.950;2023-06-22T09:53:14;38;32;
72908;PMS5003;61051;62.624;17.950;2023-06-22T09:55:43;38;31;
72908;PMS5003;61051;62.624;17.950;2023-06-22T09:58:11;30;30;
72908;PMS5003;61051;62.624;17.950;2023-06-22T10:03:21;29;28;
72908;PMS5003;61051;62.624;17.950;2023-06-22T10:05:49;39;33;
72908;PMS5003;61051;62.624;17.950;2023-06-22T10:08:19;39;32;
72908;PMS5003;61051;62.624;17.950;2023-06-22T10:10:48;30;30;
72908;PMS5003;61051;62.624;17.950;2023-06-22T10:13:16;44;36;
72908;PMS5003;61051;62.624;17.950;2023-06-22T10:15:45;39;33;
72908;PMS5003;61051;62.624;17.950;2023-06-22T10:18:13;37;30;
72908;PMS5003;61051;62.624;17.950;2023-06-22T10:20:42;36;28;
72908;PMS5003;61051;62.624;17.950;2023-06-22T10:23:10;33;30;
72908;PMS5003;61051;62.624;17.950;2023-06-22T10:25:38;40;33;
72908;PMS5003;61051;62.624;17.950;2023-06-22T10:28:06;37;34;
72908;PMS5003;61051;62.624;17.950;2023-06-22T10:30:36;34;32;
72908;PMS5003;61051;62.624;17.950;2023-06-22T10:33:05;35;32;
72908;PMS5003;61051;62.624;17.950;2023-06-22T10:35:34;40;32;
72908;PMS5003;61051;62.624;17.950;2023-06-22T10:38:03;44;34;
72908;PMS5003;61051;62.624;17.950;2023-06-22T10:40:32;31;30;
72908;PMS5003;61051;62.624;17.950;2023-06-22T10:43:02;40;34;
72908;PMS5003;61051;62.624;17.950;2023-06-22T10:45:31;30;29;
72908;PMS5003;61051;62.624;17.950;2023-06-22T10:48:00;39;30;
72908;PMS5003;61051;62.624;17.950;2023-06-22T10:50:29;36;36;
72908;PMS5003;61051;62.624;17.950;2023-06-22T10:52:57;37;30;
72908;PMS5003;61051;62.624;17.950;2023-06-22T10:55:26;38;29;
72908;PMS5003;61051;62.624;17.950;2023-06-22T10:57:54;37;33;
72908;PMS5003;61051;62.624;17.950;2023-06-22T11:00:23;35;33;
72908;PMS5003;61051;62.624;17.950;2023-06-22T11:02:51;40;36;
72908;PMS5003;61051;62.624;17.950;2023-06-22T11:05:19;37;31;
72908;PMS5003;61051;62.624;17.950;2023-06-22T11:07:48;35;31;
72908;PMS5003;61051;62.624;17.950;2023-06-22T11:10:17;37;33;
72908;PMS5003;61051;62.624;17.950;2023-06-22T11:12:46;37;32;
72908;PMS5003;61051;62.624;17.950;2023-06-22T11:15:14;34;33;
72908;PMS5003;61051;62.624;17.950;2023-06-22T11:17:43;40;32;
72908;PMS5003;61051;62.624;17.950;2023-06-22T11:20:12;43;38;
72908;PMS5003;61051;62.624;17.950;2023-06-22T11:22:40;39;32;
72908;PMS5003;61051;62.624;17.950;2023-06-22T11:25:09;36;33;
72908;PMS5003;61051;62.624;17.950;2023-06-22T11:27:37;41;34;
72908;PMS5003;61051;62.624;17.950;2023-06-22T11:30:07;32;31;
72908;PMS5003;61051;62.624;17.950;2023-06-22T11:32:37;35;32;
72908;PMS5003;61051;62.624;17.950;2023-06-22T11:35:05;36;31;
72908;PMS5003;61051;62.624;17.950;2023-06-22T11:37:34;42;33;
72908;PMS5003;61051;62.624;17.950;2023-06-22T11:40:03;34;30;
72908;PMS5003;61051;62.624;17.950;2023-06-22T11:42:32;35;33;
72908;PMS5003;61051;62.624;17.950;2023-06-22T11:45:01;37;34;
72908;PMS5003;61051;62.624;17.950;2023-06-22T11:47:30;42;34;
72908;PMS5003;61051;62.624;17.950;2023-06-22T11:50:00;39;33;
72908;PMS5003;61051;62.624;17.950;2023-06-22T11:52:30;49;40;
72908;PMS5003;61051;62.624;17.950;2023-06-22T11:54:58;41;34;
72908;PMS5003;61051;62.624;17.950;2023-06-22T11:57:26;39;31;
72908;PMS5003;61051;62.624;17.950;2023-06-22T11:59:54;35;32;
72908;PMS5003;61051;62.624;17.950;2023-06-22T12:02:22;39;38;
72908;PMS5003;61051;62.624;17.950;2023-06-22T12:04:50;40;33;
72908;PMS5003;61051;62.624;17.950;2023-06-22T12:07:19;36;35;
72908;PMS5003;61051;62.624;17.950;2023-06-22T12:09:48;40;36;
72908;PMS5003;61051;62.624;17.950;2023-06-22T12:12:16;39;32;
72908;PMS5003;61051;62.624;17.950;2023-06-22T12:14:45;39;35;
72908;PMS5003;61051;62.624;17.950;2023-06-22T12:17:13;37;34;
72908;PMS5003;61051;62.624;17.950;2023-06-22T12:19:41;33;31;
72908;PMS5003;61051;62.624;17.950;2023-06-22T12:22:09;35;33;
72908;PMS5003;61051;62.624;17.950;2023-06-22T12:24:37;36;33;
72908;PMS5003;61051;62.624;17.950;2023-06-22T12:27:06;41;33;
72908;PMS5003;61051;62.624;17.950;2023-06-22T12:29:34;42;36;
72908;PMS5003;61051;62.624;17.950;2023-06-22T12:32:02;46;40;
72908;PMS5003;61051;62.624;17.950;2023-06-22T12:34:32;41;36;
72908;PMS5003;61051;62.624;17.950;2023-06-22T12:37:01;34;32;
72908;PMS5003;61051;62.624;17.950;2023-06-22T12:39:30;28;24;
72908;PMS5003;61051;62.624;17.950;2023-06-22T12:41:58;25;21;
72908;PMS5003;61051;62.624;17.950;2023-06-22T12:44:26;19;18;
72908;PMS5003;61051;62.624;17.950;2023-06-22T12:46:54;16;16;
72908;PMS5003;61051;62.624;17.950;2023-06-22T12:49:23;19;19;
72908;PMS5003;61051;62.624;17.950;2023-06-22T12:51:52;20;18;
72908;PMS5003;61051;62.624;17.950;2023-06-22T12:54:20;19;18;
72908;PMS5003;61051;62.624;17.950;2023-06-22T12:56:49;21;17;
72908;PMS5003;61051;62.624;17.950;2023-06-22T12:59:19;18;17;
72908;PMS5003;61051;62.624;17.950;2023-06-22T13:01:48;15;15;
72908;PMS5003;61051;62.624;17.950;2023-06-22T13:04:16;15;15;
72908;PMS5003;61051;62.624;17.950;2023-06-22T13:06:44;18;15;
72908;PMS5003;61051;62.624;17.950;2023-06-22T13:09:14;16;16;
72908;PMS5003;61051;62.624;17.950;2023-06-22T13:11:43;14;14;
72908;PMS5003;61051;62.624;17.950;2023-06-22T13:14:11;15;15;
72908;PMS5003;61051;62.624;17.950;2023-06-22T13:16:40;12;11;
72908;PMS5003;61051;62.624;17.950;2023-06-22T13:19:09;9;9;
72908;PMS5003;61051;62.624;17.950;2023-06-22T13:21:37;10;10;
72908;PMS5003;61051;62.624;17.950;2023-06-22T13:24:06;10;10;
72908;PMS5003;61051;62.624;17.950;2023-06-22T13:26:34;11;10;
72908;PMS5003;61051;62.624;17.950;2023-06-22T13:29:02;10;10;
72908;PMS5003;61051;62.624;17.950;2023-06-22T13:31:32;7;5;
72908;PMS5003;61051;62.624;17.950;2023-06-22T13:34:00;6;6;
72908;PMS5003;61051;62.624;17.950;2023-06-22T13:36:29;11;9;
72908;PMS5003;61051;62.624;17.950;2023-06-22T13:38:58;7;7;
72908;PMS5003;61051;62.624;17.950;2023-06-22T13:41:26;7;7;
72908;PMS5003;61051;62.624;17.950;2023-06-22T13:43:54;5;5;
72908;PMS5003;61051;62.624;17.950;2023-06-22T13:46:22;4;4;
72908;PMS5003;61051;62.624;17.950;2023-06-22T13:48:50;3;3;
72908;PMS5003;61051;62.624;17.950;2023-06-22T13:51:18;2;2;
72908;PMS5003;61051;62.624;17.950;2023-06-22T13:53:46;3;3;
72908;PMS5003;61051;62.624;17.950;2023-06-22T13:56:14;1;1;
72908;PMS5003;61051;62.624;17.950;2023-06-22T13:58:42;2;2;
72908;PMS5003;61051;62.624;17.950;2023-06-22T14:01:10;2;2;
72908;PMS5003;61051;62.624;17.950;2023-06-22T14:03:37;1;1;
72908;PMS5003;61051;62.624;17.950;2023-06-22T14:06:05;2;2;
72908;PMS5003;61051;62.624;17.950;2023-06-22T14:08:33;0;0;
72908;PMS5003;61051;62.624;17.950;2023-06-22T14:11:03;1;1;
72908;PMS5003;61051;62.624;17.950;2023-06-22T14:13:31;1;1;
72908;PMS5003;61051;62.624;17.950;2023-06-22T14:15:59;0;0;
72908;PMS5003;61051;62.624;17.950;2023-06-22T14:18:29;1;1;
72908;PMS5003;61051;62.624;17.950;2023-06-22T14:20:57;0;0;
72908;PMS5003;61051;62.624;17.950;2023-06-22T14:23:25;1;1;
72908;PMS5003;61051;62.624;17.950;2023-06-22T14:25:54;0;0;
72908;PMS5003;61051;62.624;17.950;2023-06-22T14:28:22;1;1;
72908;PMS5003;61051;62.624;17.950;2023-06-22T14:30:50;0;0;
72908;PMS5003;61051;62.624;17.950;2023-06-22T14:33:18;1;1;
72908;PMS5003;61051;62.624;17.950;2023-06-22T14:35:46;1;1;
72908;PMS5003;61051;62.624;17.950;2023-06-22T14:38:14;0;0;
72908;PMS5003;61051;62.624;17.950;2023-06-22T14:40:42;0;0;
72908;PMS5003;61051;62.624;17.950;2023-06-22T14:43:10;0;0;
72908;PMS5003;61051;62.624;17.950;2023-06-22T14:45:38;1;1;
72908;PMS5003;61051;62.624;17.950;2023-06-22T14:48:06;0;0;
72908;PMS5003;61051;62.624;17.950;2023-06-22T14:50:34;0;0;
72908;PMS5003;61051;62.624;17.950;2023-06-22T14:53:03;0;0;
72908;PMS5003;61051;62.624;17.950;2023-06-22T14:55:32;0;0;
72908;PMS5003;61051;62.624;17.950;2023-06-22T14:58:00;0;0;
72908;PMS5003;61051;62.624;17.950;2023-06-22T15:00:29;1;1;
72908;PMS5003;61051;62.624;17.950;2023-06-22T15:02:57;0;0;
72908;PMS5003;61051;62.624;17.950;2023-06-22T15:05:25;1;1;
72908;PMS5003;61051;62.624;17.950;2023-06-22T15:07:53;0;0;
72908;PMS5003;61051;62.624;17.950;2023-06-22T15:10:21;0;0;
72908;PMS5003;61051;62.624;17.950;2023-06-22T15:12:49;1;1;
72908;PMS5003;61051;62.624;17.950;2023-06-22T15:15:17;0;0;
72908;PMS5003;61051;62.624;17.950;2023-06-22T15:17:45;1;1;
72908;PMS5003;61051;62.624;17.950;2023-06-22T15:20:13;0;0;
72908;PMS5003;61051;62.624;17.950;2023-06-22T15:22:43;1;1;
72908;PMS5003;61051;62.624;17.950;2023-06-22T15:25:11;1;1;
72908;PMS5003;61051;62.624;17.950;2023-06-22T15:27:39;1;0;
72908;PMS5003;61051;62.624;17.950;2023-06-22T15:30:07;1;1;
72908;PMS5003;61051;62.624;17.950;2023-06-22T15:32:37;2;1;
72908;PMS5003;61051;62.624;17.950;2023-06-22T15:35:05;1;1;
72908;PMS5003;61051;62.624;17.950;2023-06-22T15:37:34;2;2;
72908;PMS5003;61051;62.624;17.950;2023-06-22T15:40:03;0;0;
72908;PMS5003;61051;62.624;17.950;2023-06-22T15:42:32;1;1;
72908;PMS5003;61051;62.624;17.950;2023-06-22T15:45:01;2;2;
72908;PMS5003;61051;62.624;17.950;2023-06-22T15:47:30;0;0;
72908;PMS5003;61051;62.624;17.950;2023-06-22T15:49:58;1;1;
72908;PMS5003;61051;62.624;17.950;2023-06-22T15:52:26;1;1;
72908;PMS5003;61051;62.624;17.950;2023-06-22T15:54:54;0;0;
72908;PMS5003;61051;62.624;17.950;2023-06-22T15:57:22;1;1;
72908;PMS5003;61051;62.624;17.950;2023-06-22T15:59:50;2;2;
72908;PMS5003;61051;62.624;17.950;2023-06-22T16:03:27;0;0;
72908;PMS5003;61051;62.624;17.950;2023-06-22T16:05:55;2;2;
72908;PMS5003;61051;62.624;17.950;2023-06-22T16:08:23;1;1;
72908;PMS5003;61051;62.624;17.950;2023-06-22T16:10:51;1;1;
72908;PMS5003;61051;62.624;17.950;2023-06-22T16:13:19;2;2;
72908;PMS5003;61051;62.624;17.950;2023-06-22T16:15:47;1;1;
72908;PMS5003;61051;62.624;17.950;2023-06-22T16:18:15;0;0;
72908;PMS5003;61051;62.624;17.950;2023-06-22T16:20:43;3;2;